Lowell, Massachusetts
Current Conditions -  °F | °C
As of 6:54 AM on Sunday 21 Dec 2014 (Local Time) from KLWM Reporting Station
Overcast Overcast  
Wind Chill: 18°   Ceiling: 1200
Heat Index: 27°   Visibility: 10mi
Dew Point: 20°   Wind: 9mph
Humidity: 75%   Direction: 30°NNE
Pressure: 30.34"   Gusts: NA
Location:  42.65°N, 71.31°W
Report Text: KLWM 211154Z 03008KT 10SM OVC012 M03/M07 A3034 RMK AO2 SLP277 T10281067 11017 21028 53009
Loading
Personal Weather Stations






























Interactive Weather Map New forecast layout! Learn more

10-Day Weather Forecast

Advertisements
Track Severe Weather on mobile